Time;durP1;ratioP1;P1;durP2;ratioP2;P2;SDS_P1;SDS_P2;PMS_P1;PMS_P2;Temp;Humidity;BMP_temperature;BMP_pressure;BME280_temperature;BME280_humidity;BME280_pressure;Samples;Min_cycle;Max_cycle;Signal;HPM_P1;HPM_P2
2023/10/11 00:01:37;;;;;;;6.65;4.15;;;20.60;57.10;;;;;;4989728;28;20081;-48
2023/10/11 00:04:03;;;;;;;5.05;3.80;;;20.60;57.00;;;;;;4986752;28;20057;-46
2023/10/11 00:06:33;;;;;;;7.53;4.20;;;20.50;57.20;;;;;;4990880;28;20046;-45
2023/10/11 00:09:00;;;;;;;5.85;4.03;;;20.60;57.30;;;;;;4990259;28;20467;-45
2023/10/11 00:11:38;;;;;;;9.75;3.85;;;20.50;57.50;;;;;;4986464;28;20691;-46
2023/10/11 00:14:05;;;;;;;10.35;4.38;;;20.50;57.90;;;;;;4988355;28;20580;-46
2023/10/11 00:16:35;;;;;;;5.63;4.05;;;20.50;57.60;;;;;;4990235;28;20054;-45
2023/10/11 00:19:05;;;;;;;6.57;4.45;;;20.50;57.60;;;;;;4980920;28;20113;-48
2023/10/11 00:21:40;;;;;;;7.72;3.90;;;20.40;57.70;;;;;;4982968;28;20053;-49
2023/10/11 00:24:07;;;;;;;6.97;3.67;;;20.40;57.80;;;;;;4990030;28;20038;-47
2023/10/11 00:26:34;;;;;;;7.63;4.97;;;20.40;58.00;;;;;;4987707;28;20547;-47
2023/10/11 00:29:09;;;;;;;8.75;4.78;;;20.40;58.10;;;;;;4988499;28;20104;-46
2023/10/11 00:31:39;;;;;;;9.15;4.57;;;20.40;58.20;;;;;;4989490;28;20077;-49
2023/10/11 00:34:10;;;;;;;9.27;4.65;;;20.40;58.30;;;;;;4988755;28;20401;-47
2023/10/11 00:36:42;;;;;;;9.30;4.53;;;20.30;58.20;;;;;;4989707;28;20046;-50
2023/10/11 00:39:16;;;;;;;9.00;4.30;;;20.30;58.20;;;;;;4989787;28;20061;-46
2023/10/11 00:41:48;;;;;;;8.05;4.18;;;20.30;58.30;;;;;;4989367;28;20053;-46
2023/10/11 00:44:21;;;;;;;7.80;4.28;;;20.30;58.40;;;;;;4987510;28;20050;-45
2023/10/11 00:49:34;;;;;;;6.10;4.10;;;20.30;58.60;;;;;;4989519;28;20118;-46
2023/10/11 00:52:09;;;;;;;7.68;5.03;;;20.30;58.50;;;;;;4990814;28;20104;-46
2023/10/11 00:54:43;;;;;;;7.43;4.22;;;20.30;58.50;;;;;;4982718;28;20470;-49
2023/10/11 00:57:12;;;;;;;7.65;4.30;;;20.30;58.50;;;;;;4982584;28;20053;-50
2023/10/11 00:59:42;;;;;;;7.78;4.40;;;20.40;58.50;;;;;;4985946;28;20153;-46
2023/10/11 01:02:09;;;;;;;8.75;4.68;;;20.40;58.70;;;;;;4981939;28;20046;-47
2023/10/11 01:04:41;;;;;;;7.88;4.50;;;20.40;58.50;;;;;;4982938;28;20437;-46
2023/10/11 01:07:11;;;;;;;8.35;4.25;;;20.40;58.60;;;;;;4990757;28;20444;-46
2023/10/11 01:09:38;;;;;;;8.48;3.95;;;20.40;58.50;;;;;;4988949;28;20050;-46
2023/10/11 01:12:05;;;;;;;9.20;4.38;;;20.40;58.50;;;;;;4989703;28;20831;-45
2023/10/11 01:14:45;;;;;;;10.10;4.70;;;20.40;58.50;;;;;;4984312;28;20073;-49
2023/10/11 01:17:12;;;;;;;8.27;4.93;;;20.50;58.50;;;;;;4986628;28;20475;-48
2023/10/11 01:19:51;;;;;;;8.52;4.22;;;20.50;58.50;;;;;;4982251;28;20113;-49
2023/10/11 01:22:22;;;;;;;7.88;4.15;;;20.50;58.70;;;;;;4979436;28;20520;-47
2023/10/11 01:24:53;;;;;;;9.60;5.83;;;20.50;58.50;;;;;;4980867;28;20050;-48
2023/10/11 01:27:22;;;;;;;10.98;5.47;;;20.40;58.40;;;;;;4985318;28;20485;-45
2023/10/11 01:29:51;;;;;;;9.45;4.97;;;20.40;58.40;;;;;;4986983;28;20050;-46
2023/10/11 01:32:18;;;;;;;9.40;4.55;;;20.40;58.50;;;;;;4989350;28;20046;-46
2023/10/11 01:34:45;;;;;;;8.25;4.57;;;20.40;58.60;;;;;;4988253;28;20145;-48
2023/10/11 01:37:14;;;;;;;9.10;4.45;;;20.30;58.50;;;;;;4988067;28;20594;-48
2023/10/11 01:39:43;;;;;;;7.45;4.07;;;20.40;58.60;;;;;;4987059;28;20420;-47
2023/10/11 01:42:10;;;;;;;8.75;4.75;;;20.30;58.60;;;;;;4990110;28;20054;-46
2023/10/11 01:44:38;;;;;;;8.38;4.53;;;20.30;58.60;;;;;;4986091;28;20406;-50
2023/10/11 01:47:05;;;;;;;10.20;5.25;;;20.20;58.60;;;;;;4988575;28;20049;-46
2023/10/11 01:49:39;;;;;;;10.90;4.88;;;20.20;58.70;;;;;;4988547;28;20137;-46
2023/10/11 01:52:08;;;;;;;8.82;4.30;;;20.20;58.70;;;;;;4988092;28;20608;-47
2023/10/11 01:54:37;;;;;;;9.70;5.00;;;20.20;58.80;;;;;;4984980;28;20046;-46
2023/10/11 01:57:04;;;;;;;7.28;4.80;;;20.10;58.80;;;;;;4986698;28;20586;-48
2023/10/11 01:59:31;;;;;;;5.25;4.20;;;20.10;58.90;;;;;;4987371;28;20046;-46
2023/10/11 02:02:03;;;;;;;8.38;5.00;;;20.10;58.90;;;;;;4987086;28;20050;-45
2023/10/11 02:04:30;;;;;;;8.75;4.85;;;20.20;59.10;;;;;;4985217;28;20531;-46
2023/10/11 02:06:58;;;;;;;9.65;4.65;;;20.00;58.90;;;;;;4988149;28;20042;-46
2023/10/11 02:09:27;;;;;;;7.68;4.90;;;20.00;59.00;;;;;;4987527;28;20039;-46
2023/10/11 02:11:54;;;;;;;7.57;4.45;;;20.00;59.00;;;;;;4986574;28;20137;-49
2023/10/11 02:14:24;;;;;;;10.75;4.70;;;19.90;59.00;;;;;;4985973;28;20592;-46
2023/10/11 02:16:54;;;;;;;11.05;4.82;;;19.90;59.10;;;;;;4988401;28;20078;-46
2023/10/11 02:19:25;;;;;;;9.32;4.80;;;19.90;59.20;;;;;;4991081;28;20559;-46
2023/10/11 02:21:55;;;;;;;10.30;4.50;;;19.80;59.20;;;;;;4990472;28;20046;-46
2023/10/11 02:24:25;;;;;;;9.82;4.55;;;19.80;59.10;;;;;;4989755;28;20056;-45
2023/10/11 02:26:54;;;;;;;9.30;4.32;;;19.80;59.10;;;;;;4985009;28;20097;-47
2023/10/11 02:29:25;;;;;;;8.40;4.70;;;19.80;59.20;;;;;;4990633;28;20054;-49
2023/10/11 02:31:58;;;;;;;9.57;4.43;;;19.70;59.10;;;;;;4987319;28;20049;-46
2023/10/11 02:34:28;;;;;;;10.13;5.20;;;19.70;59.30;;;;;;4991671;28;20052;-49
2023/10/11 02:37:01;;;;;;;9.98;5.75;;;19.70;59.20;;;;;;4991517;28;20046;-45
2023/10/11 02:39:31;;;;;;;7.30;4.35;;;19.70;59.30;;;;;;4988643;28;20057;-45
2023/10/11 02:41:59;;;;;;;12.30;5.13;;;19.70;59.30;;;;;;4992048;28;20050;-50
2023/10/11 02:44:28;;;;;;;6.40;4.18;;;19.60;59.30;;;;;;4990222;28;20081;-48
2023/10/11 02:46:58;;;;;;;7.18;4.53;;;19.70;59.40;;;;;;4990309;28;20042;-50
2023/10/11 02:49:31;;;;;;;;;;;19.70;59.40;;;;;;4992046;28;20054;-46
2023/10/11 02:52:05;;;;;;;5.97;4.70;;;19.70;59.30;;;;;;4992113;28;19951;-49
2023/10/11 02:54:39;;;;;;;9.60;5.50;;;19.70;59.00;;;;;;4988451;28;20081;-45
2023/10/11 02:57:19;;;;;;;8.20;4.65;;;19.60;59.10;;;;;;4987257;28;20121;-45
2023/10/11 02:59:50;;;;;;;9.02;5.28;;;19.60;59.10;;;;;;4988942;28;20544;-46
2023/10/11 03:02:21;;;;;;;10.70;4.70;;;19.60;59.20;;;;;;4990870;28;20055;-49
2023/10/11 03:04:50;;;;;;;8.27;4.90;;;19.60;59.30;;;;;;4984083;28;20043;-46
2023/10/11 03:07:23;;;;;;;11.38;4.93;;;19.60;59.30;;;;;;4991240;28;20080;-45
2023/10/11 03:09:56;;;;;;;10.48;4.90;;;19.50;59.20;;;;;;4989717;28;20046;-48
2023/10/11 03:12:33;;;;;;;7.35;4.78;;;19.50;59.30;;;;;;4990122;28;20046;-46
2023/10/11 03:15:09;;;;;;;8.73;5.05;;;19.50;59.30;;;;;;4986048;28;20626;-45
2023/10/11 03:17:41;;;;;;;7.10;4.35;;;19.50;59.20;;;;;;4988832;28;20050;-46
2023/10/11 03:20:27;;;;;;;8.73;4.95;;;19.50;59.20;;;;;;4983959;28;20097;-48
2023/10/11 03:22:53;;;;;;;6.78;5.07;;;19.50;59.20;;;;;;4988620;28;20131;-48
2023/10/11 03:25:22;;;;;;;7.75;4.72;;;19.50;59.10;;;;;;4988570;28;20089;-48
2023/10/11 03:27:53;;;;;;;9.68;4.75;;;19.50;59.00;;;;;;4990962;28;20058;-48
2023/10/11 03:30:24;;;;;;;8.77;5.20;;;19.50;59.10;;;;;;4990254;28;20397;-49
2023/10/11 03:32:51;;;;;;;9.52;4.70;;;19.40;59.00;;;;;;4991155;28;20046;-47
2023/10/11 03:35:25;;;;;;;8.95;4.75;;;19.40;59.00;;;;;;4987724;28;20093;-48
2023/10/11 03:37:57;;;;;;;5.53;4.38;;;19.40;59.00;;;;;;4990161;28;20105;-48
2023/10/11 03:40:54;;;;;;;8.73;4.90;;;19.40;59.00;;;;;;4982996;28;20456;-49
2023/10/11 03:43:26;;;;;;;7.50;4.97;;;19.40;59.00;;;;;;4985493;28;20096;-49
2023/10/11 03:45:59;;;;;;;9.48;5.32;;;19.40;58.90;;;;;;4990285;28;20042;-46
2023/10/11 03:48:28;;;;;;;7.15;4.57;;;19.40;58.90;;;;;;4991018;28;20050;-49
2023/10/11 03:50:56;;;;;;;10.25;4.70;;;19.40;58.80;;;;;;4984627;28;20062;-46
2023/10/11 03:53:22;;;;;;;8.32;4.78;;;19.40;58.80;;;;;;4989284;28;20042;-46
2023/10/11 03:55:51;;;;;;;7.90;4.32;;;19.40;58.80;;;;;;4987186;28;20038;-45
2023/10/11 04:01:23;;;;;;;;;;;19.40;58.80;;;;;;4990701;28;20097;-45
2023/10/11 04:03:52;;;;;;;9.80;4.53;;;19.40;58.50;;;;;;4986407;28;19922;-46
2023/10/11 04:06:24;;;;;;;;;;;19.40;58.40;;;;;;4991339;28;20126;-46
2023/10/11 04:09:02;;;;;;;6.38;3.70;;;19.40;58.30;;;;;;4990486;28;19928;-50
2023/10/11 04:11:47;;;;;;;9.35;4.65;;;19.40;58.10;;;;;;4990530;28;20042;-46
2023/10/11 04:14:23;;;;;;;6.78;4.43;;;19.40;58.20;;;;;;4986242;28;20408;-46
2023/10/11 04:16:55;;;;;;;8.20;4.63;;;19.40;58.20;;;;;;4991210;28;20129;-48
2023/10/11 04:19:22;;;;;;;7.38;4.25;;;19.30;58.20;;;;;;4990123;28;20073;-48
2023/10/11 04:24:19;;;;;;;9.02;4.25;;;19.30;58.20;;;;;;4984621;28;20050;-46
2023/10/11 04:27:45;;;;;;;8.10;4.15;;;19.30;58.30;;;;;;4987300;28;20054;-48
2023/10/11 04:29:52;;;;;;;5.00;3.75;;;19.30;58.30;;;;;;4986398;28;20073;-44
2023/10/11 04:35:21;;;;;;;6.03;4.05;;;19.20;58.00;;;;;;4986533;28;20085;-47
2023/10/11 04:37:54;;;;;;;10.23;4.35;;;19.30;58.20;;;;;;4987267;28;20448;-48
2023/10/11 04:40:40;;;;;;;7.43;5.10;;;19.30;58.00;;;;;;4989582;28;20137;-45
2023/10/11 04:43:25;;;;;;;9.25;4.65;;;19.20;58.00;;;;;;4982708;28;20046;-46
2023/10/11 04:45:55;;;;;;;5.47;4.03;;;19.20;58.00;;;;;;4980079;28;20046;-45
2023/10/11 04:48:33;;;;;;;6.55;3.72;;;19.20;58.00;;;;;;4982210;28;20043;-49
2023/10/11 04:59:36;;;;;;;7.72;4.47;;;19.20;57.90;;;;;;4988154;28;20122;-48
2023/10/11 05:02:17;;;;;;;4.55;3.88;;;19.20;57.80;;;;;;4982441;28;20540;-49
2023/10/11 05:04:44;;;;;;;8.43;4.30;;;19.20;57.70;;;;;;4979239;28;20047;-48
2023/10/11 05:07:13;;;;;;;8.40;4.13;;;19.20;57.70;;;;;;4989966;28;20066;-49
2023/10/11 05:09:40;;;;;;;7.28;4.13;;;19.20;57.70;;;;;;4984184;28;20121;-46
2023/10/11 05:12:19;;;;;;;8.65;4.38;;;19.20;57.90;;;;;;4986464;28;20049;-46
2023/10/11 05:19:45;;;;;;;6.95;4.68;;;19.20;57.60;;;;;;4988710;28;20112;-49
2023/10/11 05:32:54;;;;;;;7.47;3.70;;;19.10;57.50;;;;;;4977407;28;20122;-47
2023/10/11 05:51:57;;;;;;;9.45;3.90;;;19.00;57.40;;;;;;4990248;28;20034;-50
2023/10/11 05:54:33;;;;;;;5.63;3.97;;;19.00;57.40;;;;;;4990499;28;20496;-48
2023/10/11 05:57:03;;;;;;;7.53;3.75;;;19.00;57.40;;;;;;4990504;28;20559;-50
2023/10/11 05:59:37;;;;;;;6.85;3.80;;;19.00;57.40;;;;;;4993158;28;20049;-49
2023/10/11 06:02:13;;;;;;;11.65;4.35;;;19.10;57.30;;;;;;4993127;28;20136;-48
2023/10/11 06:04:40;;;;;;;7.68;3.75;;;19.10;57.40;;;;;;4992351;28;20061;-47
2023/10/11 06:07:13;;;;;;;8.20;4.45;;;19.10;57.30;;;;;;4988892;28;20405;-46
2023/10/11 06:09:43;;;;;;;9.73;4.68;;;19.10;57.30;;;;;;4992702;28;20042;-48
2023/10/11 06:12:23;;;;;;;9.32;3.67;;;19.10;57.30;;;;;;4990795;28;20046;-46
2023/10/11 06:14:55;;;;;;;7.65;3.85;;;19.10;57.30;;;;;;4988761;28;20039;-49
2023/10/11 06:17:32;;;;;;;5.87;3.70;;;19.20;57.30;;;;;;4993304;28;20042;-48
2023/10/11 06:20:23;;;;;;;7.60;3.90;;;19.20;57.20;;;;;;4985863;28;20038;-46
2023/10/11 06:22:48;;;;;;;6.22;3.28;;;19.20;57.10;;;;;;4989975;28;20469;-50
2023/10/11 06:25:22;;;;;;;8.98;4.32;;;19.20;57.10;;;;;;4990263;28;20042;-50
2023/10/11 06:30:21;;;;;;;7.95;3.67;;;19.30;57.10;;;;;;4990887;28;21296;-50
2023/10/11 06:32:50;;;;;;;10.18;4.20;;;19.30;57.10;;;;;;4985466;28;20042;-47
2023/10/11 06:35:26;;;;;;;6.07;3.83;;;19.30;57.10;;;;;;4988156;28;20104;-48
2023/10/11 06:37:53;;;;;;;5.65;3.53;;;19.30;57.20;;;;;;4993348;28;20085;-50
2023/10/11 06:40:38;;;;;;;6.72;3.72;;;19.30;57.20;;;;;;4989264;28;20053;-48
2023/10/11 06:43:07;;;;;;;6.03;3.60;;;19.30;57.00;;;;;;4990497;28;20540;-46
2023/10/11 06:45:33;;;;;;;5.90;3.70;;;19.30;57.10;;;;;;4985532;28;20054;-47
2023/10/11 06:48:06;;;;;;;7.32;3.65;;;19.30;57.00;;;;;;4988236;28;20045;-49
2023/10/11 06:50:37;;;;;;;5.55;3.58;;;19.40;57.50;;;;;;4986870;28;20481;-48
2023/10/11 06:53:08;;;;;;;9.77;3.92;;;19.40;57.10;;;;;;4990881;28;20066;-51
2023/10/11 06:55:39;;;;;;;8.33;4.43;;;19.40;57.10;;;;;;4984533;28;20039;-47
2023/10/11 06:58:19;;;;;;;7.60;3.90;;;19.40;57.00;;;;;;4990369;28;20130;-46
2023/10/11 07:00:48;;;;;;;5.32;3.88;;;19.40;56.90;;;;;;4988685;28;20853;-49
2023/10/11 07:06:01;;;;;;;9.50;3.83;;;19.50;57.10;;;;;;4988584;28;20043;-48
2023/10/11 07:08:48;;;;;;;6.45;3.92;;;19.50;56.90;;;;;;4986080;28;20042;-50
2023/10/11 07:11:50;;;;;;;8.55;3.78;;;19.60;57.00;;;;;;4989615;28;20043;-51
2023/10/11 07:14:16;;;;;;;5.00;3.30;;;19.60;57.00;;;;;;4986741;28;20137;-47
2023/10/11 07:16:44;;;;;;;6.18;3.40;;;19.60;56.90;;;;;;4991441;28;20038;-49
2023/10/11 07:19:11;;;;;;;7.13;3.20;;;19.70;57.00;;;;;;4989088;28;20042;-49
2023/10/11 07:24:32;;;;;;;3.83;3.22;;;19.80;56.80;;;;;;4988745;28;20073;-50
2023/10/11 07:27:09;;;;;;;4.03;3.20;;;19.80;56.60;;;;;;4989271;28;20417;-46
2023/10/11 07:29:39;;;;;;;6.05;3.67;;;19.90;56.70;;;;;;4991474;28;20046;-50
2023/10/11 07:32:09;;;;;;;4.68;3.00;;;20.00;56.60;;;;;;4988027;28;20375;-50
2023/10/11 07:34:39;;;;;;;8.88;3.70;;;20.00;56.70;;;;;;4984620;28;20073;-47
2023/10/11 07:37:06;;;;;;;5.85;3.60;;;20.10;56.40;;;;;;4991684;28;20046;-50
2023/10/11 07:39:35;;;;;;;5.93;3.45;;;20.20;56.60;;;;;;4981142;28;20069;-50
2023/10/11 07:42:08;;;;;;;7.28;3.38;;;20.20;56.50;;;;;;4991282;28;20489;-51
2023/10/11 07:44:36;;;;;;;6.35;3.95;;;20.30;56.20;;;;;;4985871;28;20109;-51
2023/10/11 07:47:06;;;;;;;7.80;3.97;;;20.30;56.10;;;;;;4991516;28;20050;-51
2023/10/11 07:49:39;;;;;;;5.63;3.63;;;20.40;56.00;;;;;;4982316;28;20038;-51
2023/10/11 07:52:08;;;;;;;7.38;4.13;;;20.40;55.80;;;;;;4991094;28;20459;-51
2023/10/11 07:54:39;;;;;;;9.45;4.55;;;20.50;55.80;;;;;;4990541;28;20589;-48
2023/10/11 07:57:13;;;;;;;6.97;3.47;;;20.50;55.60;;;;;;4987321;28;20042;-49
2023/10/11 07:59:44;;;;;;;11.43;5.20;;;20.60;55.70;;;;;;4986281;28;20038;-47
2023/10/11 08:02:27;;;;;;;5.53;3.03;;;20.70;55.60;;;;;;4987166;28;20128;-47
2023/10/11 08:04:57;;;;;;;9.70;3.55;;;20.70;55.30;;;;;;4987826;28;20048;-51
2023/10/11 08:07:26;;;;;;;6.95;3.53;;;20.80;55.30;;;;;;4986751;28;20038;-49
2023/10/11 08:09:55;;;;;;;8.80;4.13;;;20.90;55.10;;;;;;4990020;28;20089;-51
2023/10/11 08:12:23;;;;;;;7.32;4.38;;;20.90;55.10;;;;;;4987976;28;20576;-49
2023/10/11 08:14:56;;;;;;;6.05;3.80;;;20.90;54.90;;;;;;4988809;28;20547;-50
2023/10/11 08:17:29;;;;;;;7.20;4.18;;;21.00;54.90;;;;;;4988286;28;20422;-47
2023/10/11 08:19:59;;;;;;;9.07;4.05;;;21.00;54.90;;;;;;4986608;28;20049;-47
2023/10/11 08:22:27;;;;;;;6.22;4.10;;;21.10;54.80;;;;;;4986237;28;20527;-47
2023/10/11 08:24:59;;;;;;;9.75;4.15;;;21.10;54.80;;;;;;4989598;28;20040;-47
2023/10/11 08:27:28;;;;;;;11.57;4.38;;;21.20;54.60;;;;;;4987644;28;20058;-47
2023/10/11 08:30:17;;;;;;;7.38;3.72;;;21.20;54.40;;;;;;4990077;28;20078;-47
2023/10/11 08:32:46;;;;;;;10.18;4.25;;;21.30;54.10;;;;;;4986854;28;20440;-50
2023/10/11 08:35:16;;;;;;;7.93;4.30;;;21.30;54.00;;;;;;4982493;28;20707;-47
2023/10/11 08:37:52;;;;;;;22.75;4.40;;;21.30;53.80;;;;;;4990043;28;20121;-50
2023/10/11 08:40:20;;;;;;;5.82;3.85;;;21.40;53.70;;;;;;4986963;28;20047;-47
2023/10/11 08:42:51;;;;;;;8.05;3.70;;;21.40;53.60;;;;;;4991192;28;20049;-51
2023/10/11 08:45:28;;;;;;;7.68;4.05;;;21.50;53.70;;;;;;4989561;28;20050;-48
2023/10/11 08:47:57;;;;;;;7.03;3.80;;;21.60;53.60;;;;;;4990798;28;20045;-47
2023/10/11 08:50:31;;;;;;;8.68;3.88;;;21.60;53.70;;;;;;4987423;28;20061;-47
2023/10/11 08:52:58;;;;;;;6.72;4.00;;;21.60;53.50;;;;;;4990820;28;20532;-48
2023/10/11 08:55:25;;;;;;;7.07;4.22;;;21.60;53.70;;;;;;5005346;23;20718;-52
2023/10/11 08:57:53;;;;;;;7.78;3.97;;;21.70;53.60;;;;;;4987392;28;20556;-53
2023/10/11 09:00:31;;;;;;;7.47;3.95;;;21.70;53.30;;;;;;4989012;28;20096;-52
2023/10/11 09:03:17;;;;;;;10.38;4.25;;;21.70;53.20;;;;;;4989105;28;20562;-52
2023/10/11 09:05:47;;;;;;;5.80;3.88;;;21.80;53.00;;;;;;4986236;28;20559;-53
2023/10/11 09:08:27;;;;;;;6.38;3.75;;;21.80;53.30;;;;;;4988655;28;20100;-54
2023/10/11 09:11:28;;;;;;;8.05;4.47;;;21.90;52.90;;;;;;4987895;28;20069;-52
2023/10/11 09:14:22;;;;;;;7.17;3.90;;;21.90;53.30;;;;;;4986360;28;20049;-52
2023/10/11 09:16:57;;;;;;;8.02;4.60;;;21.90;53.10;;;;;;4984215;28;20045;-52
2023/10/11 09:19:24;;;;;;;6.32;3.90;;;22.00;53.10;;;;;;4989206;28;20049;-53
2023/10/11 09:22:05;;;;;;;8.57;4.40;;;22.00;53.30;;;;;;4985062;28;20137;-52
2023/10/11 09:24:41;;;;;;;5.63;3.78;;;22.00;53.10;;;;;;4977803;28;20473;-52
2023/10/11 09:29:49;;;;;;;5.93;3.67;;;22.10;53.40;;;;;;4984614;28;20118;-51
2023/10/11 09:32:19;;;;;;;5.85;4.13;;;22.10;53.50;;;;;;4987586;28;20038;-51
2023/10/11 09:34:47;;;;;;;7.18;3.83;;;22.20;53.50;;;;;;4983594;28;20492;-49
2023/10/11 09:37:14;;;;;;;5.20;3.83;;;22.30;53.50;;;;;;4982874;28;20125;-51
2023/10/11 09:39:42;;;;;;;8.73;4.13;;;22.30;53.30;;;;;;4987144;28;20042;-53
2023/10/11 09:42:13;;;;;;;6.10;4.20;;;22.40;53.30;;;;;;4992425;28;20069;-53
2023/10/11 09:44:45;;;;;;;7.75;4.57;;;22.40;53.40;;;;;;4992711;28;20042;-52
2023/10/11 09:47:19;;;;;;;10.07;3.88;;;22.50;53.30;;;;;;4989152;28;20116;-52
2023/10/11 09:49:47;;;;;;;4.68;3.30;;;22.50;53.30;;;;;;4986887;28;20034;-52
2023/10/11 09:52:18;;;;;;;8.85;4.72;;;22.60;52.90;;;;;;4990224;28;20101;-54
2023/10/11 09:54:50;;;;;;;5.55;3.72;;;22.70;53.00;;;;;;4989510;28;20548;-52
2023/10/11 09:57:41;;;;;;;10.27;3.90;;;22.70;52.80;;;;;;4991071;28;20058;-53
2023/10/11 10:00:26;;;;;;;7.72;4.07;;;22.80;53.00;;;;;;4992901;28;20057;-53
2023/10/11 10:02:54;;;;;;;10.70;4.43;;;22.90;52.70;;;;;;4991289;28;20038;-53
2023/10/11 10:05:22;;;;;;;11.20;4.13;;;23.00;52.90;;;;;;4985174;28;20038;-51
2023/10/11 10:07:53;;;;;;;12.38;5.13;;;23.10;52.80;;;;;;4990571;28;20538;-53
2023/10/11 10:10:25;;;;;;;8.50;3.95;;;23.20;52.30;;;;;;4992320;28;20126;-52
2023/10/11 10:13:00;;;;;;;7.50;4.10;;;23.30;52.50;;;;;;4986782;28;20038;-50
2023/10/11 10:15:32;;;;;;;6.70;4.68;;;23.40;51.80;;;;;;4988959;28;20059;-51
2023/10/11 10:18:05;;;;;;;8.93;4.80;;;23.50;52.00;;;;;;4991721;28;20039;-50
2023/10/11 10:20:46;;;;;;;6.78;4.25;;;23.50;51.90;;;;;;4992026;28;20046;-50
2023/10/11 10:23:15;;;;;;;10.98;4.80;;;23.60;51.90;;;;;;4985418;28;20078;-57
2023/10/11 10:25:46;;;;;;;8.65;4.40;;;23.60;51.30;;;;;;4989304;28;20093;-53
2023/10/11 10:28:34;;;;;;;7.05;4.32;;;23.60;51.40;;;;;;4989343;28;20070;-53
2023/10/11 10:31:12;;;;;;;11.80;5.63;;;23.60;51.20;;;;;;4990560;28;20050;-52
2023/10/11 10:33:40;;;;;;;8.73;4.25;;;23.60;51.20;;;;;;4982376;28;20090;-53
2023/10/11 10:36:21;;;;;;;9.38;4.43;;;23.70;51.40;;;;;;4985756;28;20088;-53
2023/10/11 10:39:00;;;;;;;8.45;4.18;;;23.70;51.60;;;;;;4990711;28;20058;-52
2023/10/11 10:41:30;;;;;;;9.48;4.60;;;23.70;51.50;;;;;;4989058;28;20137;-52
2023/10/11 10:44:08;;;;;;;10.15;4.95;;;23.70;51.50;;;;;;4992215;28;20042;-52
2023/10/11 10:46:37;;;;;;;5.45;4.07;;;23.70;51.40;;;;;;4989182;28;20050;-53
2023/10/11 10:49:04;;;;;;;9.63;4.47;;;23.70;51.60;;;;;;4990584;28;20570;-53
2023/10/11 10:51:39;;;;;;;10.75;3.90;;;23.70;51.70;;;;;;4991429;28;20417;-50
2023/10/11 10:54:14;;;;;;;9.68;4.25;;;23.70;51.50;;;;;;4990600;28;20031;-53
2023/10/11 10:56:46;;;;;;;15.07;4.95;;;23.70;52.00;;;;;;4989546;28;20105;-52
2023/10/11 10:59:14;;;;;;;6.35;3.92;;;23.70;51.90;;;;;;4989777;28;20102;-53
2023/10/11 11:01:46;;;;;;;8.45;3.80;;;23.70;51.80;;;;;;4989993;28;20070;-53
2023/10/11 11:04:20;;;;;;;14.43;5.05;;;23.70;51.80;;;;;;4981082;28;20097;-51
2023/10/11 11:06:50;;;;;;;10.40;5.43;;;23.80;51.60;;;;;;4986088;28;20054;-51
2023/10/11 11:09:19;;;;;;;10.27;4.57;;;23.80;51.50;;;;;;4986633;28;20046;-51
2023/10/11 11:11:48;;;;;;;8.63;4.50;;;23.80;51.40;;;;;;4984880;28;20104;-53
2023/10/11 11:14:19;;;;;;;10.30;4.40;;;23.80;51.30;;;;;;4991122;28;20042;-53
2023/10/11 11:16:57;;;;;;;8.23;4.32;;;23.80;51.00;;;;;;4988968;28;20054;-52
2023/10/11 11:19:27;;;;;;;11.55;5.35;;;23.90;51.30;;;;;;4990224;28;20053;-51
2023/10/11 11:22:13;;;;;;;12.50;4.85;;;23.90;51.00;;;;;;4987119;28;20524;-52
2023/10/11 11:24:42;;;;;;;9.77;4.97;;;24.00;51.00;;;;;;4990056;28;20101;-53
2023/10/11 11:27:30;;;;;;;8.13;4.45;;;24.00;51.40;;;;;;4987798;28;20058;-53
2023/10/11 11:30:04;;;;;;;7.97;4.97;;;24.10;51.50;;;;;;4991418;28;20034;-52
2023/10/11 11:32:39;;;;;;;10.50;4.25;;;24.10;51.30;;;;;;4987679;28;20600;-52
2023/10/11 11:35:10;;;;;;;16.48;6.53;;;24.10;50.80;;;;;;4984973;28;20034;-52
2023/10/11 11:37:39;;;;;;;11.73;4.53;;;24.20;51.30;;;;;;4990023;28;20051;-51
2023/10/11 11:40:18;;;;;;;15.80;4.90;;;24.20;51.30;;;;;;4986051;28;20039;-53
2023/10/11 11:42:48;;;;;;;9.95;5.50;;;24.30;51.20;;;;;;4983086;28;20093;-50
2023/10/11 11:45:16;;;;;;;9.43;4.50;;;24.30;51.50;;;;;;4987254;28;20046;-53
2023/10/11 11:47:55;;;;;;;9.73;4.40;;;24.40;51.20;;;;;;4983641;28;20109;-53
2023/10/11 11:50:30;;;;;;;10.43;4.60;;;24.50;51.10;;;;;;4984696;28;20039;-53
2023/10/11 11:52:57;;;;;;;6.85;4.07;;;24.50;51.00;;;;;;4987916;28;20046;-51
2023/10/11 11:55:24;;;;;;;15.52;5.15;;;24.60;51.10;;;;;;4970895;28;20061;-51
2023/10/11 11:57:52;;;;;;;8.73;4.80;;;24.60;50.90;;;;;;4983808;28;20050;-50
2023/10/11 12:02:54;;;;;;;15.15;4.88;;;24.70;51.00;;;;;;4987107;28;20054;-53
2023/10/11 12:05:21;;;;;;;14.75;5.07;;;24.80;51.60;;;;;;4985835;28;20528;-53
2023/10/11 12:07:51;;;;;;;9.80;5.22;;;24.80;50.80;;;;;;4987990;28;20413;-52
2023/10/11 12:10:24;;;;;;;13.18;5.00;;;24.90;50.80;;;;;;4985829;28;20070;-53
2023/10/11 12:12:55;;;;;;;11.15;4.78;;;24.90;50.80;;;;;;4999210;28;20041;-53
2023/10/11 12:15:21;;;;;;;7.95;4.20;;;25.00;50.80;;;;;;4984800;28;20046;-53
2023/10/11 12:17:54;;;;;;;11.15;4.25;;;25.10;51.00;;;;;;4982473;28;20442;-53
2023/10/11 12:20:33;;;;;;;7.53;4.75;;;25.10;50.90;;;;;;4979210;28;20046;-53
2023/10/11 12:23:08;;;;;;;9.77;4.60;;;25.10;50.80;;;;;;4986581;28;20031;-53
2023/10/11 12:25:39;;;;;;;9.50;4.57;;;25.20;50.80;;;;;;4982972;28;20085;-50
2023/10/11 12:28:06;;;;;;;11.60;5.15;;;25.30;50.10;;;;;;4987180;28;20062;-53
2023/10/11 12:30:36;;;;;;;10.13;4.78;;;25.40;50.40;;;;;;4989392;28;20038;-48
2023/10/11 12:33:06;;;;;;;10.95;4.82;;;25.50;50.60;;;;;;4987122;28;20043;-53
2023/10/11 12:35:41;;;;;;;10.57;4.90;;;25.60;50.60;;;;;;4981659;28;20057;-51
2023/10/11 12:38:12;;;;;;;8.70;3.92;;;25.70;50.50;;;;;;4984198;28;20070;-53
2023/10/11 12:40:44;;;;;;;6.80;4.32;;;25.70;51.10;;;;;;4983914;28;20066;-51
2023/10/11 12:43:11;;;;;;;8.43;4.18;;;25.90;50.20;;;;;;4980788;28;20045;-52
2023/10/11 12:45:42;;;;;;;5.82;3.88;;;25.90;49.90;;;;;;4983597;28;20058;-53
2023/10/11 12:48:12;;;;;;;7.55;4.22;;;26.00;49.70;;;;;;4980853;28;20030;-51
2023/10/11 12:50:40;;;;;;;15.87;5.07;;;26.20;49.80;;;;;;4980296;28;20117;-52
2023/10/11 12:53:11;;;;;;;7.85;4.53;;;26.20;49.30;;;;;;4977413;28;20066;-52
2023/10/11 12:55:41;;;;;;;10.18;4.28;;;26.30;49.10;;;;;;4974825;28;20045;-50
2023/10/11 12:58:19;;;;;;;7.30;4.72;;;26.40;49.00;;;;;;4985101;28;20512;-53
2023/10/11 13:00:51;;;;;;;10.77;4.55;;;26.40;48.10;;;;;;4980408;28;20066;-51
2023/10/11 13:03:20;;;;;;;5.43;3.90;;;26.50;48.70;;;;;;4983443;28;20046;-51
2023/10/11 13:05:47;;;;;;;9.93;3.95;;;26.60;48.40;;;;;;4979609;28;20505;-53
2023/10/11 13:08:15;;;;;;;9.38;4.05;;;26.70;48.00;;;;;;4976234;28;20504;-53
2023/10/11 13:10:45;;;;;;;8.43;4.00;;;26.80;47.90;;;;;;4971604;28;20779;-53
2023/10/11 13:13:15;;;;;;;8.50;3.88;;;26.70;47.70;;;;;;4987210;28;20073;-52
2023/10/11 13:16:03;;;;;;;9.52;4.53;;;26.80;47.40;;;;;;4984900;28;20042;-51
2023/10/11 13:18:33;;;;;;;5.85;4.05;;;26.90;48.00;;;;;;4977714;28;20054;-53
2023/10/11 13:21:00;;;;;;;6.90;3.95;;;26.90;47.70;;;;;;4985018;28;20043;-53
2023/10/11 13:23:31;;;;;;;9.30;4.15;;;26.90;47.80;;;;;;4980823;28;20042;-53
2023/10/11 13:25:59;;;;;;;8.82;4.03;;;27.00;47.80;;;;;;4983086;28;20137;-49
2023/10/11 13:28:28;;;;;;;7.13;3.78;;;27.00;47.70;;;;;;4988830;28;20035;-53
2023/10/11 13:30:55;;;;;;;8.27;3.90;;;27.10;47.60;;;;;;4988972;28;20057;-53
2023/10/11 13:33:35;;;;;;;11.32;4.20;;;27.20;47.50;;;;;;4989624;28;20053;-49
2023/10/11 13:36:08;;;;;;;8.10;3.45;;;27.40;47.40;;;;;;4984281;28;20061;-53
2023/10/11 13:38:36;;;;;;;5.25;3.60;;;27.50;47.30;;;;;;4990648;28;20050;-54
2023/10/11 13:41:12;;;;;;;12.82;4.32;;;27.80;47.60;;;;;;4988328;28;20062;-52
2023/10/11 13:43:44;;;;;;;5.28;3.85;;;28.20;47.40;;;;;;4989438;28;20041;-54
2023/10/11 13:46:14;;;;;;;7.72;3.35;;;28.50;48.10;;;;;;4978834;28;20038;-53
2023/10/11 13:48:41;;;;;;;8.35;3.72;;;29.00;46.50;;;;;;4987940;28;20070;-53
2023/10/11 13:51:17;;;;;;;9.45;3.40;;;29.30;45.60;;;;;;4981791;28;20056;-52
2023/10/11 13:53:45;;;;;;;7.32;3.10;;;29.60;44.80;;;;;;4990266;28;20058;-53
2023/10/11 13:56:23;;;;;;;8.00;3.63;;;29.80;43.80;;;;;;4984933;28;20461;-54
2023/10/11 13:58:53;;;;;;;10.27;4.05;;;29.90;43.50;;;;;;4987466;28;20049;-54
2023/10/11 14:01:59;;;;;;;13.85;4.50;;;29.90;43.70;;;;;;4986871;28;20046;-53
2023/10/11 14:04:14;;;;;;;10.15;4.70;;;30.00;43.60;;;;;;4989456;28;20043;-54
2023/10/11 14:07:21;;;;;;;8.57;3.83;;;30.10;43.60;;;;;;4988850;28;20044;-53
2023/10/11 14:09:57;;;;;;;6.00;3.53;;;30.20;43.10;;;;;;4994234;28;20663;-51
2023/10/11 14:12:34;;;;;;;10.27;3.78;;;30.30;42.80;;;;;;4989848;28;20050;-54
2023/10/11 14:15:07;;;;;;;10.27;3.63;;;30.30;42.50;;;;;;4982830;28;20133;-53
2023/10/11 14:17:38;;;;;;;7.32;3.95;;;30.40;42.60;;;;;;4983673;28;20054;-53